Time;durP1;ratioP1;P1;durP2;ratioP2;P2;SDS_P1;SDS_P2;PMS_P1;PMS_P2;Temp;Humidity;BMP_temperature;BMP_pressure;BME280_temperature;BME280_humidity;BME280_pressure;Samples;Min_cycle;Max_cycle;Signal;HPM_P1;HPM_P2
2024/01/16 00:01:08;;;;;;;13.90;5.88;;;0.30;88.80;;;;;;5026203;28;20381;-78
2024/01/16 00:03:34;;;;;;;13.80;5.35;;;0.20;88.80;;;;;;5039774;28;20029;-78
2024/01/16 00:06:01;;;;;;;12.32;5.28;;;0.20;89.10;;;;;;5032739;28;20027;-77
2024/01/16 00:08:27;;;;;;;11.07;5.47;;;0.20;88.90;;;;;;5028513;28;20036;-77
2024/01/16 00:10:52;;;;;;;12.85;5.93;;;0.20;89.00;;;;;;5037245;28;20025;-77
2024/01/16 00:13:18;;;;;;;13.70;6.38;;;0.20;89.00;;;;;;5031790;28;20458;-77
2024/01/16 00:15:44;;;;;;;14.32;6.95;;;0.10;89.00;;;;;;5031466;28;20048;-78
2024/01/16 00:18:09;;;;;;;12.55;5.10;;;0.20;89.10;;;;;;5031489;28;20536;-78
2024/01/16 00:20:35;;;;;;;13.93;5.90;;;0.10;89.20;;;;;;5032937;28;20114;-78
2024/01/16 00:23:01;;;;;;;14.48;5.75;;;0.10;89.10;;;;;;5038469;28;20029;-78
2024/01/16 00:25:26;;;;;;;16.58;5.57;;;0.10;89.20;;;;;;5028577;28;20316;-77
2024/01/16 00:27:52;;;;;;;14.25;6.68;;;0.10;89.20;;;;;;5024475;28;20029;-77
2024/01/16 00:30:18;;;;;;;15.48;6.82;;;0.10;89.20;;;;;;5030780;28;20029;-77
2024/01/16 00:32:44;;;;;;;14.48;6.38;;;0.10;89.30;;;;;;5029777;28;20410;-78
2024/01/16 00:35:10;;;;;;;12.98;6.57;;;0.10;89.30;;;;;;5031982;28;20112;-78
2024/01/16 00:37:39;;;;;;;16.17;6.28;;;0.10;89.20;;;;;;5034239;28;20398;-78
2024/01/16 00:40:05;;;;;;;12.90;6.00;;;0.10;89.10;;;;;;5032672;28;20025;-78
2024/01/16 00:42:31;;;;;;;16.20;6.13;;;0.00;89.10;;;;;;5034267;28;20332;-77
2024/01/16 00:44:58;;;;;;;15.38;6.40;;;0.00;89.20;;;;;;5023041;28;20370;-77
2024/01/16 00:47:24;;;;;;;14.10;5.25;;;0.00;89.30;;;;;;5026778;28;20476;-78
2024/01/16 00:49:49;;;;;;;13.20;5.68;;;0.00;89.30;;;;;;5026066;28;20037;-76
2024/01/16 00:52:15;;;;;;;16.23;6.28;;;0.00;89.30;;;;;;5029916;28;20017;-76
2024/01/16 00:54:42;;;;;;;12.00;5.28;;;0.00;89.40;;;;;;5028909;28;20334;-76
2024/01/16 00:57:07;;;;;;;12.13;4.97;;;0.00;89.30;;;;;;5028414;28;20025;-76
2024/01/16 00:59:33;;;;;;;11.25;5.38;;;0.00;89.30;;;;;;5027042;28;20043;-79
2024/01/16 01:01:59;;;;;;;13.70;5.32;;;0.00;89.30;;;;;;5035399;28;20040;-77
2024/01/16 01:04:24;;;;;;;14.15;5.40;;;0.00;89.30;;;;;;5042841;28;20025;-76
2024/01/16 01:06:50;;;;;;;17.15;6.15;;;0.00;89.10;;;;;;5033716;28;20121;-76
2024/01/16 01:09:16;;;;;;;14.10;6.85;;;0.00;89.10;;;;;;5033593;28;20051;-76
2024/01/16 01:11:42;;;;;;;13.38;6.45;;;0.00;89.20;;;;;;5044723;28;20021;-77
2024/01/16 01:14:08;;;;;;;17.25;6.97;;;0.10;89.00;;;;;;5049271;28;20347;-77
2024/01/16 01:16:34;;;;;;;12.93;6.65;;;0.10;88.90;;;;;;5046813;28;20025;-78
2024/01/16 01:18:59;;;;;;;11.18;6.32;;;0.10;88.80;;;;;;5045070;28;20114;-77
2024/01/16 01:21:25;;;;;;;12.63;6.70;;;0.10;88.70;;;;;;5044113;28;20041;-77
2024/01/16 01:23:51;;;;;;;13.50;6.72;;;0.10;88.70;;;;;;5040747;28;20024;-77
2024/01/16 01:26:19;;;;;;;13.57;6.63;;;0.10;88.70;;;;;;5042294;28;20523;-77
2024/01/16 01:28:44;;;;;;;11.57;6.00;;;0.10;88.60;;;;;;5038047;28;20485;-77
2024/01/16 01:31:13;;;;;;;10.32;5.68;;;0.10;88.60;;;;;;5027905;28;20041;-77
2024/01/16 01:33:42;;;;;;;12.80;5.97;;;0.10;88.60;;;;;;5031547;28;20079;-77
2024/01/16 01:36:08;;;;;;;13.82;6.20;;;0.10;88.60;;;;;;5036456;28;20057;-77
2024/01/16 01:38:33;;;;;;;13.32;5.22;;;0.10;88.50;;;;;;5028385;28;20099;-77
2024/01/16 01:40:59;;;;;;;15.88;5.65;;;0.10;88.60;;;;;;5033216;28;20048;-77
2024/01/16 01:43:25;;;;;;;12.23;4.68;;;0.10;88.50;;;;;;5034787;28;20295;-77
2024/01/16 01:46:10;;;;;;;14.45;5.75;;;0.10;88.50;;;;;;5034112;28;20032;-77
2024/01/16 01:48:43;;;;;;;14.07;6.00;;;0.10;88.40;;;;;;5034932;28;20233;-77
2024/01/16 01:51:13;;;;;;;14.13;5.93;;;0.10;88.50;;;;;;5038073;28;20273;-77
2024/01/16 01:53:41;;;;;;;11.77;6.00;;;0.00;88.50;;;;;;5035539;28;20402;-77
2024/01/16 01:56:10;;;;;;;16.55;5.28;;;0.00;88.60;;;;;;5029106;28;20025;-78
2024/01/16 01:58:39;;;;;;;15.35;6.90;;;0.00;88.60;;;;;;5039164;28;20041;-77
2024/01/16 02:01:07;;;;;;;11.60;5.75;;;0.00;88.60;;;;;;5028982;28;20025;-77
2024/01/16 02:03:42;;;;;;;12.85;5.35;;;0.00;88.60;;;;;;5029964;28;20182;-77
2024/01/16 02:06:07;;;;;;;11.27;5.53;;;0.00;88.50;;;;;;5035818;28;20025;-77
2024/01/16 02:08:33;;;;;;;9.65;5.50;;;0.00;88.40;;;;;;5028852;28;20037;-77
2024/01/16 02:10:59;;;;;;;13.77;5.75;;;0.00;88.50;;;;;;5034689;28;20036;-77
2024/01/16 02:13:25;;;;;;;13.70;6.15;;;0.00;88.50;;;;;;5036474;28;20478;-78
2024/01/16 02:15:50;;;;;;;12.50;5.43;;;0.00;88.50;;;;;;5031324;28;20112;-77
2024/01/16 02:18:17;;;;;;;12.30;6.85;;;0.00;88.50;;;;;;5022847;28;20057;-77
2024/01/16 02:20:47;;;;;;;15.30;5.78;;;-3276.70;88.60;;;;;;5035784;28;20095;-77
2024/01/16 02:23:14;;;;;;;16.13;6.10;;;-3276.70;88.60;;;;;;5033534;28;20411;-77
2024/01/16 02:25:42;;;;;;;12.05;5.80;;;-3276.70;88.70;;;;;;5032740;28;20037;-77
2024/01/16 02:28:07;;;;;;;13.25;5.63;;;-3276.70;88.70;;;;;;5030493;28;20025;-77
2024/01/16 02:30:33;;;;;;;13.48;5.90;;;-3276.70;88.70;;;;;;5030532;28;20461;-77
2024/01/16 02:32:59;;;;;;;13.95;5.05;;;-3276.70;88.60;;;;;;5030914;28;20055;-77
2024/01/16 02:35:25;;;;;;;12.82;5.00;;;-3276.70;88.50;;;;;;5031228;28;20021;-77
2024/01/16 02:37:50;;;;;;;12.02;4.97;;;-3276.70;88.40;;;;;;5041813;28;20454;-76
2024/01/16 02:40:16;;;;;;;14.13;4.60;;;-3276.70;88.30;;;;;;5032132;28;20112;-77
2024/01/16 02:42:42;;;;;;;10.55;4.63;;;-3276.70;88.40;;;;;;5038248;28;20037;-77
2024/01/16 02:45:08;;;;;;;10.10;5.07;;;-3276.70;88.30;;;;;;5030754;28;20469;-77
2024/01/16 02:47:34;;;;;;;12.25;4.97;;;-3276.70;88.30;;;;;;5031352;28;20321;-77
2024/01/16 02:50:00;;;;;;;11.70;5.05;;;-3276.70;88.30;;;;;;5033799;28;20111;-77
2024/01/16 02:52:26;;;;;;;12.18;5.25;;;-3276.70;88.20;;;;;;5031928;28;20420;-77
2024/01/16 02:54:51;;;;;;;11.65;4.30;;;-3276.70;88.30;;;;;;5035264;28;20272;-76
2024/01/16 02:57:17;;;;;;;14.77;5.45;;;-3276.70;88.10;;;;;;5033524;28;20021;-77
2024/01/16 02:59:46;;;;;;;15.55;5.15;;;-3276.70;87.90;;;;;;5026375;28;20525;-77
2024/01/16 03:02:12;;;;;;;13.40;4.78;;;-3276.70;88.00;;;;;;5028557;28;20366;-77
2024/01/16 03:04:37;;;;;;;8.75;4.65;;;-3276.70;87.90;;;;;;5034104;28;20028;-77
2024/01/16 03:07:03;;;;;;;14.40;5.07;;;-3276.60;87.70;;;;;;5029378;28;20082;-76
2024/01/16 03:09:29;;;;;;;12.68;5.07;;;-3276.70;87.90;;;;;;5034309;28;20785;-77
2024/01/16 03:11:55;;;;;;;12.77;5.43;;;-3276.70;87.80;;;;;;5029904;28;20429;-77
2024/01/16 03:14:21;;;;;;;11.90;5.10;;;-3276.70;87.70;;;;;;5033679;28;20051;-77
2024/01/16 03:16:46;;;;;;;15.43;5.85;;;-3276.70;87.60;;;;;;5033757;28;20034;-77
2024/01/16 03:19:12;;;;;;;10.30;4.47;;;-3276.70;87.60;;;;;;5022446;28;20033;-77
2024/01/16 03:21:38;;;;;;;12.45;4.88;;;-3276.70;87.50;;;;;;5032390;28;20418;-76
2024/01/16 03:24:05;;;;;;;13.50;4.70;;;-3276.70;87.50;;;;;;5030854;28;20048;-76
2024/01/16 03:26:32;;;;;;;11.18;4.88;;;-3276.60;87.40;;;;;;5015929;28;20044;-76
2024/01/16 03:28:58;;;;;;;8.35;4.55;;;-3276.70;87.30;;;;;;5029813;28;20486;-76
2024/01/16 03:31:23;;;;;;;12.15;5.20;;;-3276.70;87.20;;;;;;5036037;28;20051;-77
2024/01/16 03:33:49;;;;;;;11.55;4.97;;;-3276.70;87.20;;;;;;5031043;28;20679;-76
2024/01/16 03:36:15;;;;;;;14.45;4.68;;;-3276.70;87.10;;;;;;5033264;28;20045;-77
2024/01/16 03:38:43;;;;;;;15.50;5.00;;;-3276.70;87.10;;;;;;5030207;28;20029;-76
2024/01/16 03:41:11;;;;;;;11.77;5.00;;;-3276.70;87.10;;;;;;5023139;28;20486;-76
2024/01/16 03:43:36;;;;;;;11.85;5.80;;;-3276.70;87.10;;;;;;5019139;28;20129;-76
2024/01/16 03:46:02;;;;;;;11.98;5.38;;;-3276.60;87.00;;;;;;5029744;28;20311;-76
2024/01/16 03:48:28;;;;;;;13.30;5.03;;;-3276.60;87.00;;;;;;5038902;28;20578;-76
2024/01/16 03:50:55;;;;;;;11.73;4.90;;;-3276.60;86.80;;;;;;5036498;28;20544;-75
2024/01/16 03:53:21;;;;;;;15.52;5.30;;;-3276.60;86.80;;;;;;5026528;28;20033;-76
2024/01/16 03:55:47;;;;;;;13.90;4.90;;;-3276.70;86.70;;;;;;5030463;28;20474;-77
2024/01/16 03:58:13;;;;;;;10.55;5.10;;;-3276.60;86.70;;;;;;5030625;28;20485;-76
2024/01/16 04:00:38;;;;;;;10.55;5.45;;;-3276.70;86.60;;;;;;5030152;28;20028;-76
2024/01/16 04:03:05;;;;;;;14.05;5.03;;;-3276.60;86.40;;;;;;5037903;28;20025;-76
2024/01/16 04:05:31;;;;;;;11.68;4.93;;;-3276.60;86.50;;;;;;5035546;28;20066;-76
2024/01/16 04:07:57;;;;;;;11.65;4.50;;;-3276.60;86.50;;;;;;5028556;28;20290;-76
2024/01/16 04:10:22;;;;;;;12.65;4.68;;;-3276.60;86.40;;;;;;5031186;28;20033;-76
2024/01/16 04:12:48;;;;;;;10.38;4.95;;;-3276.60;86.40;;;;;;5029056;28;20041;-76
2024/01/16 04:15:14;;;;;;;11.73;4.70;;;-3276.60;86.30;;;;;;5030282;28;20025;-76
2024/01/16 04:17:39;;;;;;;10.95;5.18;;;-3276.50;86.30;;;;;;5028179;28;20044;-76
2024/01/16 04:20:06;;;;;;;12.23;5.95;;;-3276.50;86.30;;;;;;5039158;28;20372;-76
2024/01/16 04:22:33;;;;;;;13.32;4.57;;;-3276.50;86.40;;;;;;5031870;28;20454;-76
2024/01/16 04:24:58;;;;;;;14.23;5.50;;;-3276.40;86.40;;;;;;5029750;28;20164;-76
2024/01/16 04:27:25;;;;;;;10.32;4.72;;;-3276.40;86.50;;;;;;5033829;28;20108;-75
2024/01/16 04:29:51;;;;;;;11.70;5.00;;;-3276.40;86.50;;;;;;5032720;28;20165;-76
2024/01/16 04:32:16;;;;;;;13.52;4.80;;;-3276.40;86.50;;;;;;5035988;28;20018;-76
2024/01/16 04:34:42;;;;;;;11.23;4.65;;;-3276.40;86.50;;;;;;5037918;28;20282;-76
2024/01/16 04:37:08;;;;;;;11.85;4.80;;;-3276.40;86.40;;;;;;5032742;28;20033;-76
2024/01/16 04:39:33;;;;;;;12.63;5.03;;;-3276.40;86.20;;;;;;5033756;28;20052;-76
2024/01/16 04:41:59;;;;;;;13.63;5.72;;;-3276.40;86.00;;;;;;5035792;28;20033;-76
2024/01/16 04:44:24;;;;;;;12.23;4.47;;;-3276.40;86.10;;;;;;5032201;28;20378;-76
2024/01/16 04:46:50;;;;;;;18.73;5.43;;;-3276.40;86.20;;;;;;5030964;28;20025;-77
2024/01/16 04:49:16;;;;;;;12.15;4.93;;;-3276.40;86.20;;;;;;5021746;28;20033;-77
2024/01/16 04:51:41;;;;;;;12.60;4.65;;;-3276.30;86.20;;;;;;5024844;28;20014;-77
2024/01/16 04:54:07;;;;;;;10.48;5.38;;;-3276.40;86.30;;;;;;5021415;28;20495;-77
2024/01/16 04:56:33;;;;;;;12.80;4.53;;;-3276.30;86.20;;;;;;5035708;28;20012;-77
2024/01/16 04:58:58;;;;;;;12.50;5.10;;;-3276.30;86.20;;;;;;5037910;28;20021;-77
2024/01/16 05:01:25;;;;;;;9.80;4.65;;;-3276.30;86.20;;;;;;5026255;28;20029;-77
2024/01/16 05:03:50;;;;;;;12.07;4.80;;;-3276.30;86.10;;;;;;5024483;28;20047;-77
2024/01/16 05:06:16;;;;;;;14.70;5.65;;;-3276.30;86.10;;;;;;5035681;28;20465;-77
2024/01/16 05:08:42;;;;;;;12.38;4.90;;;-3276.30;86.20;;;;;;5028033;28;20022;-77
2024/01/16 05:11:09;;;;;;;13.35;5.78;;;-3276.30;86.30;;;;;;5031058;28;20037;-77
2024/01/16 05:13:34;;;;;;;15.18;5.82;;;-3276.30;86.30;;;;;;5022623;28;20519;-77
2024/01/16 05:16:00;;;;;;;11.27;5.15;;;-3276.30;86.40;;;;;;5028999;28;20025;-77
2024/01/16 05:18:26;;;;;;;11.30;4.72;;;-3276.30;86.40;;;;;;5031159;28;20221;-77
2024/01/16 05:20:51;;;;;;;14.18;5.70;;;-3276.30;86.30;;;;;;5026382;28;20033;-77
2024/01/16 05:23:17;;;;;;;10.35;4.07;;;-3276.30;86.40;;;;;;5027930;28;20053;-78
2024/01/16 05:25:43;;;;;;;12.98;5.28;;;-3276.40;86.40;;;;;;5025872;28;20014;-79
2024/01/16 05:28:10;;;;;;;12.00;5.57;;;-3276.40;86.40;;;;;;5027828;28;20280;-79
2024/01/16 05:30:35;;;;;;;16.83;5.40;;;-3276.40;86.30;;;;;;5032883;28;20389;-79
2024/01/16 05:33:01;;;;;;;10.98;4.93;;;-3276.40;86.10;;;;;;5028970;28;20036;-79
2024/01/16 05:35:28;;;;;;;10.77;5.20;;;-3276.40;86.10;;;;;;5038733;28;20021;-79
2024/01/16 05:37:54;;;;;;;10.95;5.18;;;-3276.40;86.10;;;;;;5029719;28;20029;-78
2024/01/16 05:40:19;;;;;;;12.88;5.18;;;-3276.50;86.10;;;;;;5028105;28;20033;-78
2024/01/16 05:42:45;;;;;;;13.45;5.60;;;-3276.50;85.90;;;;;;5032009;28;20170;-78
2024/01/16 05:45:11;;;;;;;11.95;5.93;;;-3276.40;86.00;;;;;;5031002;28;20379;-78
2024/01/16 05:47:36;;;;;;;13.27;5.53;;;-3276.50;86.00;;;;;;5036204;28;20381;-78
2024/01/16 05:50:02;;;;;;;12.65;6.10;;;-3276.50;86.10;;;;;;5037703;28;20021;-78
2024/01/16 05:52:28;;;;;;;15.80;5.25;;;-3276.50;86.00;;;;;;5032754;28;20021;-78
2024/01/16 05:54:57;;;;;;;10.48;4.85;;;-3276.50;86.10;;;;;;5035577;28;20041;-79
2024/01/16 05:57:23;;;;;;;14.02;5.45;;;-3276.60;86.00;;;;;;5028615;28;20515;-78
2024/01/16 05:59:48;;;;;;;9.57;5.25;;;-3276.50;85.90;;;;;;5028812;28;20038;-78
2024/01/16 06:02:14;;;;;;;14.55;5.57;;;-3276.60;85.90;;;;;;5034771;28;20292;-79
2024/01/16 06:04:40;;;;;;;12.32;4.90;;;-3276.60;85.70;;;;;;5032726;28;20255;-79
2024/01/16 06:07:09;;;;;;;11.35;4.57;;;-3276.60;85.60;;;;;;5035289;28;20493;-79
2024/01/16 06:09:40;;;;;;;14.70;5.53;;;-3276.70;85.50;;;;;;5036441;28;20461;-79
2024/01/16 06:12:07;;;;;;;11.10;5.75;;;-3276.70;85.40;;;;;;5039639;28;20032;-79
2024/01/16 06:14:33;;;;;;;11.15;5.07;;;-3276.70;85.30;;;;;;5032864;28;20090;-79
2024/01/16 06:16:58;;;;;;;15.10;5.72;;;-3276.70;85.30;;;;;;5033415;28;20053;-79
2024/01/16 06:19:24;;;;;;;13.75;4.88;;;-3276.70;85.20;;;;;;5030249;28;20064;-80
2024/01/16 06:21:50;;;;;;;11.55;5.93;;;-3276.70;85.30;;;;;;5034005;28;20450;-80
2024/01/16 06:24:15;;;;;;;18.13;5.80;;;-3276.70;85.20;;;;;;5034552;28;20060;-79
2024/01/16 06:26:42;;;;;;;15.52;5.95;;;-3276.70;85.10;;;;;;5035733;28;20548;-79
2024/01/16 06:29:07;;;;;;;10.98;5.00;;;-3276.60;85.00;;;;;;5033496;28;20159;-79
2024/01/16 06:31:33;;;;;;;11.35;5.57;;;-3276.60;85.00;;;;;;5031574;28;20022;-79
2024/01/16 06:33:59;;;;;;;13.93;5.88;;;-3276.60;84.90;;;;;;5032502;28;20501;-79
2024/01/16 06:36:24;;;;;;;13.45;5.53;;;-3276.50;85.00;;;;;;5032813;28;20028;-79
2024/01/16 06:38:50;;;;;;;11.75;4.95;;;-3276.50;85.10;;;;;;5024527;28;20028;-79
2024/01/16 06:41:16;;;;;;;13.50;6.57;;;-3276.50;85.10;;;;;;5031482;28;20115;-78
2024/01/16 06:43:41;;;;;;;13.85;5.70;;;-3276.50;85.00;;;;;;5036225;28;20454;-80
2024/01/16 06:46:07;;;;;;;12.13;6.00;;;-3276.50;84.90;;;;;;5032716;28;20048;-80
2024/01/16 06:48:36;;;;;;;11.38;5.50;;;-3276.50;84.90;;;;;;5029294;28;20064;-79
2024/01/16 06:51:01;;;;;;;14.07;7.05;;;-3276.50;85.00;;;;;;5038007;28;20033;-79
2024/01/16 06:53:27;;;;;;;21.15;7.93;;;-3276.40;84.90;;;;;;5024864;28;20682;-79
2024/01/16 06:55:52;;;;;;;19.85;9.07;;;-3276.40;85.10;;;;;;5037308;28;20053;-78
2024/01/16 06:58:18;;;;;;;21.63;8.77;;;-3276.40;85.30;;;;;;5031475;28;20276;-79
2024/01/16 07:00:44;;;;;;;16.13;7.97;;;-3276.40;85.30;;;;;;5035900;28;20060;-79
2024/01/16 07:03:10;;;;;;;21.00;9.93;;;-3276.30;85.20;;;;;;5028247;28;20037;-77
2024/01/16 07:05:36;;;;;;;17.80;8.48;;;-3276.30;85.20;;;;;;5031075;28;20330;-74
2024/01/16 07:08:01;;;;;;;11.98;7.00;;;-3276.30;85.30;;;;;;5034751;28;20112;-74
2024/01/16 07:10:27;;;;;;;13.98;6.18;;;-3276.30;85.30;;;;;;5036338;28;20347;-74
2024/01/16 07:12:53;;;;;;;14.02;6.68;;;-3276.30;85.40;;;;;;5040413;28;20037;-73
2024/01/16 07:15:19;;;;;;;14.15;7.20;;;-3276.30;85.40;;;;;;5029411;28;20034;-74
2024/01/16 07:17:44;;;;;;;17.15;6.60;;;-3276.30;85.60;;;;;;5024967;28;20029;-73
2024/01/16 07:20:10;;;;;;;12.27;6.03;;;-3276.30;85.50;;;;;;5032753;28;20033;-72
2024/01/16 07:22:39;;;;;;;13.43;6.13;;;-3276.40;85.40;;;;;;5027030;28;20021;-73
2024/01/16 07:25:06;;;;;;;11.95;6.03;;;-3276.40;85.40;;;;;;5032689;28;20012;-73
2024/01/16 07:27:32;;;;;;;14.52;6.45;;;-3276.40;85.50;;;;;;5022095;28;20055;-72
2024/01/16 07:29:57;;;;;;;15.90;6.28;;;-3276.40;85.60;;;;;;5029945;28;20041;-73
2024/01/16 07:32:23;;;;;;;15.48;7.03;;;-3276.40;85.60;;;;;;5034720;28;20029;-72
2024/01/16 07:34:48;;;;;;;16.58;6.55;;;-3276.40;85.60;;;;;;5034430;28;20369;-72
2024/01/16 07:37:15;;;;;;;16.17;7.28;;;-3276.40;85.60;;;;;;5025442;28;20414;-73
2024/01/16 07:39:41;;;;;;;14.02;7.10;;;-3276.40;85.70;;;;;;5023599;28;20121;-72
2024/01/16 07:42:07;;;;;;;18.70;7.30;;;-3276.40;85.70;;;;;;5041285;28;20021;-72
2024/01/16 07:44:33;;;;;;;14.43;5.88;;;-3276.50;85.70;;;;;;5047678;28;20437;-71
2024/01/16 07:46:59;;;;;;;14.50;6.85;;;-3276.50;85.60;;;;;;5035661;28;20049;-70
2024/01/16 07:49:25;;;;;;;19.02;7.88;;;-3276.50;85.70;;;;;;5036136;28;20101;-72
2024/01/16 07:51:51;;;;;;;17.60;7.00;;;-3276.40;85.60;;;;;;5035891;28;20312;-72
2024/01/16 07:54:17;;;;;;;13.65;6.82;;;-3276.50;85.70;;;;;;5036081;28;20465;-74
2024/01/16 07:56:43;;;;;;;14.98;6.32;;;-3276.50;85.60;;;;;;5028730;28;20344;-72
2024/01/16 07:59:09;;;;;;;16.70;7.35;;;-3276.50;85.60;;;;;;5022994;28;20044;-73
2024/01/16 08:01:34;;;;;;;15.63;7.30;;;-3276.50;85.50;;;;;;5029965;28;20044;-73
2024/01/16 08:04:00;;;;;;;16.65;6.95;;;-3276.60;85.50;;;;;;5035995;28;20068;-73
2024/01/16 08:06:26;;;;;;;16.13;7.30;;;-3276.60;85.50;;;;;;5024719;28;20035;-73
2024/01/16 08:08:52;;;;;;;13.95;7.40;;;-3276.70;85.40;;;;;;5021791;28;20045;-73
2024/01/16 08:11:19;;;;;;;14.20;7.32;;;-3276.70;85.30;;;;;;5032311;28;20025;-72
2024/01/16 08:13:44;;;;;;;13.75;7.20;;;0.00;85.30;;;;;;5027640;28;20178;-73
2024/01/16 08:16:10;;;;;;;14.30;6.88;;;0.00;85.00;;;;;;5033207;28;20473;-73
2024/01/16 08:18:36;;;;;;;14.60;7.32;;;0.00;85.00;;;;;;5034318;28;20466;-73
2024/01/16 08:21:02;;;;;;;14.80;6.88;;;0.00;84.90;;;;;;5030842;28;20045;-73
2024/01/16 08:23:28;;;;;;;16.17;6.70;;;0.10;85.00;;;;;;5034028;28;20037;-72
2024/01/16 08:25:54;;;;;;;16.10;6.90;;;0.10;85.00;;;;;;5032457;28;20119;-73
2024/01/16 08:28:19;;;;;;;13.15;6.57;;;0.10;84.80;;;;;;5037476;28;20535;-72
2024/01/16 08:30:45;;;;;;;19.80;7.65;;;0.10;84.70;;;;;;5029157;28;20029;-72
2024/01/16 08:33:12;;;;;;;15.90;7.07;;;0.20;84.60;;;;;;5030959;28;20041;-73
2024/01/16 08:35:38;;;;;;;14.02;7.20;;;0.20;84.30;;;;;;5034080;28;20037;-73
2024/01/16 08:38:04;;;;;;;13.25;7.10;;;0.20;84.20;;;;;;5028262;28;20043;-72
2024/01/16 08:40:31;;;;;;;22.98;7.93;;;0.20;84.10;;;;;;5025680;28;20037;-73
2024/01/16 08:42:57;;;;;;;13.27;7.22;;;0.30;84.10;;;;;;5023334;28;20033;-72
2024/01/16 08:45:22;;;;;;;15.02;7.22;;;0.40;84.20;;;;;;5028247;28;20098;-72
2024/01/16 08:47:49;;;;;;;12.05;6.82;;;0.40;84.10;;;;;;5031730;28;20025;-73
2024/01/16 08:50:15;;;;;;;33.22;17.88;;;0.40;84.10;;;;;;5033779;28;20021;-74
2024/01/16 08:52:42;;;;;;;26.40;15.02;;;0.50;84.10;;;;;;5032447;28;20409;-72
2024/01/16 08:55:09;;;;;;;33.95;18.58;;;0.60;84.00;;;;;;5031366;28;20027;-73
2024/01/16 08:57:34;;;;;;;20.00;11.80;;;0.70;83.80;;;;;;5016898;28;20033;-73
2024/01/16 09:00:00;;;;;;;27.77;15.70;;;0.80;83.40;;;;;;5031349;28;20484;-71
2024/01/16 09:02:28;;;;;;;19.70;8.48;;;0.90;83.40;;;;;;5022421;28;20022;-73
2024/01/16 09:04:55;;;;;;;17.25;7.97;;;0.90;83.00;;;;;;5029367;28;20013;-73
2024/01/16 09:07:20;;;;;;;15.15;7.03;;;1.00;82.90;;;;;;5028671;28;20120;-73
2024/01/16 09:09:46;;;;;;;14.63;6.53;;;1.00;82.80;;;;;;5030539;28;20127;-72
2024/01/16 09:12:12;;;;;;;17.33;6.80;;;1.10;82.40;;;;;;5025202;28;20069;-74
2024/01/16 09:14:38;;;;;;;14.63;6.45;;;1.10;82.40;;;;;;5033565;28;20465;-73
2024/01/16 09:17:03;;;;;;;17.40;6.75;;;1.10;82.20;;;;;;5029295;28;20248;-72
2024/01/16 09:19:29;;;;;;;13.88;6.85;;;1.10;81.90;;;;;;5019664;28;20517;-73
2024/01/16 09:21:56;;;;;;;12.38;6.85;;;1.10;81.80;;;;;;5032363;28;20178;-72
2024/01/16 09:24:22;;;;;;;15.35;6.78;;;1.10;82.10;;;;;;5031789;28;20042;-72
2024/01/16 09:26:47;;;;;;;14.80;6.95;;;1.10;82.10;;;;;;5033812;28;20238;-73
2024/01/16 09:29:14;;;;;;;14.77;7.10;;;1.10;82.10;;;;;;5025544;28;20477;-72
2024/01/16 09:31:41;;;;;;;14.85;7.07;;;1.10;82.00;;;;;;5030960;28;20025;-72
2024/01/16 09:34:06;;;;;;;17.95;6.45;;;1.30;82.30;;;;;;5027868;28;20045;-73
2024/01/16 09:36:35;;;;;;;12.88;7.35;;;1.60;81.80;;;;;;5029979;28;20581;-73
2024/01/16 09:39:02;;;;;;;15.00;6.55;;;1.80;81.50;;;;;;5032752;28;20541;-73
2024/01/16 09:41:28;;;;;;;17.15;6.70;;;2.10;80.50;;;;;;5034808;28;20386;-73
2024/01/16 09:43:54;;;;;;;13.77;6.45;;;2.30;79.70;;;;;;5037299;28;20366;-73
2024/01/16 09:46:24;;;;;;;12.32;5.78;;;2.40;78.80;;;;;;5034861;28;20184;-73
2024/01/16 09:48:53;;;;;;;14.48;6.22;;;2.50;78.50;;;;;;5036500;28;20034;-74
2024/01/16 09:51:18;;;;;;;16.55;7.18;;;2.60;78.10;;;;;;5033170;28;20489;-73
2024/01/16 09:53:44;;;;;;;13.93;6.22;;;2.80;77.60;;;;;;5032862;28;20041;-73
2024/01/16 09:56:15;;;;;;;11.60;6.95;;;2.90;77.30;;;;;;5024760;28;20060;-73
2024/01/16 09:58:43;;;;;;;21.63;11.43;;;3.10;77.10;;;;;;5029530;28;20057;-73
2024/01/16 10:01:11;;;;;;;25.83;15.95;;;3.10;76.10;;;;;;5030693;28;20441;-73
2024/01/16 10:03:38;;;;;;;20.30;10.98;;;3.10;76.10;;;;;;5031545;28;20352;-74
2024/01/16 10:06:06;;;;;;;24.38;13.48;;;3.20;75.90;;;;;;5036382;28;20400;-73
2024/01/16 10:08:32;;;;;;;25.67;13.45;;;3.20;75.90;;;;;;5044826;28;20044;-73
2024/01/16 10:10:58;;;;;;;26.17;12.80;;;3.20;75.60;;;;;;5036456;28;20044;-72
2024/01/16 10:13:24;;;;;;;13.30;6.53;;;3.30;74.80;;;;;;5033302;28;20028;-72
2024/01/16 10:15:52;;;;;;;13.85;6.65;;;3.40;74.80;;;;;;5032092;28;20029;-72
2024/01/16 10:18:26;;;;;;;14.63;6.30;;;3.20;74.40;;;;;;5032005;28;20099;-72
2024/01/16 10:20:53;;;;;;;17.27;7.25;;;3.30;74.30;;;;;;5035662;28;20473;-72
2024/01/16 10:23:29;;;;;;;12.00;6.95;;;3.30;74.40;;;;;;5033802;28;20029;-72
2024/01/16 10:26:07;;;;;;;13.63;6.63;;;3.40;74.40;;;;;;5036163;28;20035;-72
2024/01/16 10:28:34;;;;;;;11.93;6.30;;;3.60;74.30;;;;;;5033282;28;20065;-71
2024/01/16 10:31:08;;;;;;;18.92;6.75;;;3.60;73.90;;;;;;5029892;28;20358;-71
2024/01/16 10:33:34;;;;;;;15.40;7.37;;;3.60;73.70;;;;;;5032477;28;20038;-73
2024/01/16 10:36:12;;;;;;;17.00;7.38;;;3.70;74.70;;;;;;5027834;28;20142;-72
2024/01/16 10:38:39;;;;;;;18.10;8.25;;;3.80;75.10;;;;;;5034678;28;20087;-72
2024/01/16 10:41:08;;;;;;;13.82;7.18;;;3.80;74.60;;;;;;5037756;28;20111;-72
2024/01/16 10:43:34;;;;;;;19.48;9.50;;;3.70;75.00;;;;;;5026269;28;20041;-73
2024/01/16 10:46:11;;;;;;;19.15;8.20;;;3.70;75.30;;;;;;5028997;28;20429;-72
2024/01/16 10:48:39;;;;;;;15.60;7.85;;;3.80;75.10;;;;;;5032291;28;20276;-72
2024/01/16 10:51:06;;;;;;;15.38;7.50;;;3.90;74.60;;;;;;5031843;28;20028;-72
2024/01/16 10:53:34;;;;;;;14.00;6.97;;;3.90;74.20;;;;;;5034206;28;20071;-72
2024/01/16 10:56:02;;;;;;;13.70;6.35;;;3.90;73.60;;;;;;5028567;28;20231;-73
2024/01/16 10:58:31;;;;;;;12.25;5.95;;;3.80;73.30;;;;;;5034708;28;20048;-72
2024/01/16 11:01:01;;;;;;;17.08;6.88;;;3.80;72.90;;;;;;5030581;28;20033;-73
2024/01/16 11:03:49;;;;;;;16.17;6.47;;;3.90;73.40;;;;;;5031699;28;20116;-73
2024/01/16 11:06:16;;;;;;;14.48;6.93;;;4.10;72.90;;;;;;5029107;28;20456;-72
2024/01/16 11:08:45;;;;;;;14.75;7.13;;;4.10;73.50;;;;;;5035283;28;20320;-72
2024/01/16 11:11:11;;;;;;;12.48;6.57;;;4.20;73.00;;;;;;5036200;28;20341;-73
2024/01/16 11:13:38;;;;;;;14.55;6.78;;;4.20;72.90;;;;;;5035898;28;20029;-73
2024/01/16 11:16:04;;;;;;;17.70;7.70;;;4.20;73.10;;;;;;5034672;28;20018;-72
2024/01/16 11:18:35;;;;;;;13.63;7.05;;;4.20;72.60;;;;;;5036961;28;20103;-73
2024/01/16 11:21:06;;;;;;;13.70;6.95;;;4.20;72.80;;;;;;5037507;28;20091;-72
2024/01/16 11:23:32;;;;;;;16.33;6.85;;;4.40;72.90;;;;;;5037059;28;20057;-74
2024/01/16 11:25:58;;;;;;;12.82;6.28;;;4.50;72.70;;;;;;5036360;28;20017;-73
2024/01/16 11:28:31;;;;;;;16.05;6.47;;;4.60;71.80;;;;;;5032262;28;20040;-73
2024/01/16 11:30:57;;;;;;;12.52;5.07;;;4.50;71.40;;;;;;5034334;28;20039;-73
2024/01/16 11:33:32;;;;;;;14.35;5.32;;;4.40;70.70;;;;;;5029737;28;20036;-72
2024/01/16 11:35:58;;;;;;;12.23;5.38;;;4.50;70.20;;;;;;5039361;28;20020;-72
2024/01/16 11:38:26;;;;;;;10.10;4.60;;;4.60;69.90;;;;;;5030175;28;20370;-72
2024/01/16 11:40:58;;;;;;;17.08;8.65;;;4.50;69.50;;;;;;5031532;28;20191;-72
2024/01/16 11:43:33;;;;;;;13.55;5.32;;;4.60;69.30;;;;;;5034453;28;20028;-72
2024/01/16 11:46:08;;;;;;;12.55;6.80;;;4.60;68.90;;;;;;5031058;28;20022;-72
2024/01/16 11:48:34;;;;;;;9.27;4.60;;;4.60;67.90;;;;;;5027298;28;20132;-73
2024/01/16 11:51:20;;;;;;;8.73;3.85;;;4.60;66.70;;;;;;5030153;28;20119;-73
2024/01/16 11:53:46;;;;;;;9.32;4.20;;;4.50;66.30;;;;;;5030822;28;20412;-71
2024/01/16 11:56:43;;;;;;;12.02;5.47;;;4.40;67.20;;;;;;5036605;28;20033;-72
2024/01/16 11:59:42;;;;;;;12.02;5.50;;;4.60;66.70;;;;;;5030472;28;20114;-72
2024/01/16 12:02:21;;;;;;;11.25;5.05;;;4.70;66.30;;;;;;5026916;28;20041;-72
2024/01/16 12:04:58;;;;;;;12.40;4.38;;;4.70;66.20;;;;;;5024072;28;20099;-72
2024/01/16 12:07:24;;;;;;;11.23;4.10;;;4.50;66.20;;;;;;5029243;28;20091;-72
2024/01/16 12:09:50;;;;;;;13.55;4.28;;;4.40;66.60;;;;;;5035832;28;20040;-72
2024/01/16 12:12:18;;;;;;;11.30;4.70;;;4.50;67.10;;;;;;5028629;28;20021;-72
2024/01/16 12:14:51;;;;;;;11.75;3.75;;;4.50;66.40;;;;;;5037577;28;20355;-73
2024/01/16 12:17:20;;;;;;;11.50;5.05;;;4.40;66.20;;;;;;5035728;28;20021;-72
2024/01/16 12:19:46;;;;;;;8.65;3.97;;;4.60;66.10;;;;;;5031517;28;20068;-73
2024/01/16 12:22:16;;;;;;;10.25;3.97;;;4.50;65.90;;;;;;5030679;28;20087;-72
2024/01/16 12:24:42;;;;;;;8.35;3.92;;;4.40;66.00;;;;;;5030121;28;20029;-72
2024/01/16 12:27:08;;;;;;;11.18;4.43;;;4.50;65.90;;;;;;5034371;28;20386;-72